sensor_id;sensor_type;location;lat;lon;timestamp;P1;durP1;ratioP1;P2;durP2;ratioP2
67776;SDS011;54576;52.020;5.536;2023-07-31T00:00:26;0.70;;;0.70;;
67776;SDS011;54576;52.020;5.536;2023-07-31T00:02:52;1.25;;;0.80;;
67776;SDS011;54576;52.020;5.536;2023-07-31T00:05:18;1.10;;;0.95;;
67776;SDS011;54576;52.020;5.536;2023-07-31T00:07:43;1.30;;;1.20;;
67776;SDS011;54576;52.020;5.536;2023-07-31T00:10:09;3.90;;;1.00;;
67776;SDS011;54576;52.020;5.536;2023-07-31T00:12:35;1.20;;;1.10;;
67776;SDS011;54576;52.020;5.536;2023-07-31T00:15:01;2.72;;;1.98;;
67776;SDS011;54576;52.020;5.536;2023-07-31T00:17:27;3.15;;;1.38;;
67776;SDS011;54576;52.020;5.536;2023-07-31T00:19:53;2.85;;;2.05;;
67776;SDS011;54576;52.020;5.536;2023-07-31T00:22:19;6.20;;;2.20;;
67776;SDS011;54576;52.020;5.536;2023-07-31T00:24:44;4.07;;;2.83;;
67776;SDS011;54576;52.020;5.536;2023-07-31T00:27:10;12.60;;;2.97;;
67776;SDS011;54576;52.020;5.536;2023-07-31T00:29:35;11.63;;;4.43;;
67776;SDS011;54576;52.020;5.536;2023-07-31T00:32:07;12.30;;;4.10;;
67776;SDS011;54576;52.020;5.536;2023-07-31T00:34:33;25.58;;;5.63;;
67776;SDS011;54576;52.020;5.536;2023-07-31T00:36:58;20.17;;;5.38;;
67776;SDS011;54576;52.020;5.536;2023-07-31T00:39:24;25.38;;;7.35;;
67776;SDS011;54576;52.020;5.536;2023-07-31T00:41:49;27.40;;;6.40;;
67776;SDS011;54576;52.020;5.536;2023-07-31T00:44:15;33.60;;;7.97;;
67776;SDS011;54576;52.020;5.536;2023-07-31T00:46:41;35.80;;;8.35;;
67776;SDS011;54576;52.020;5.536;2023-07-31T00:49:06;39.92;;;8.80;;
67776;SDS011;54576;52.020;5.536;2023-07-31T00:51:33;33.08;;;7.90;;
67776;SDS011;54576;52.020;5.536;2023-07-31T00:54:02;29.80;;;8.10;;
67776;SDS011;54576;52.020;5.536;2023-07-31T00:56:28;30.55;;;8.18;;
67776;SDS011;54576;52.020;5.536;2023-07-31T00:58:54;35.38;;;8.70;;
67776;SDS011;54576;52.020;5.536;2023-07-31T01:01:20;44.35;;;9.13;;
67776;SDS011;54576;52.020;5.536;2023-07-31T01:03:46;35.63;;;8.98;;
67776;SDS011;54576;52.020;5.536;2023-07-31T01:09:02;34.60;;;8.68;;
67776;SDS011;54576;52.020;5.536;2023-07-31T01:11:35;37.05;;;8.20;;
67776;SDS011;54576;52.020;5.536;2023-07-31T01:14:07;30.58;;;7.88;;
67776;SDS011;54576;52.020;5.536;2023-07-31T01:16:33;23.90;;;8.15;;
67776;SDS011;54576;52.020;5.536;2023-07-31T01:18:59;38.50;;;8.80;;
67776;SDS011;54576;52.020;5.536;2023-07-31T01:24:30;38.13;;;8.45;;
67776;SDS011;54576;52.020;5.536;2023-07-31T01:27:14;30.50;;;8.52;;
67776;SDS011;54576;52.020;5.536;2023-07-31T01:32:20;37.13;;;8.57;;
67776;SDS011;54576;52.020;5.536;2023-07-31T01:34:47;26.65;;;7.40;;
67776;SDS011;54576;52.020;5.536;2023-07-31T01:37:14;34.35;;;7.80;;
67776;SDS011;54576;52.020;5.536;2023-07-31T01:39:39;38.30;;;8.32;;
67776;SDS011;54576;52.020;5.536;2023-07-31T01:42:05;32.60;;;7.80;;
67776;SDS011;54576;52.020;5.536;2023-07-31T01:44:31;41.15;;;8.52;;
67776;SDS011;54576;52.020;5.536;2023-07-31T01:46:57;38.88;;;8.38;;
67776;SDS011;54576;52.020;5.536;2023-07-31T01:49:25;33.30;;;7.75;;
67776;SDS011;54576;52.020;5.536;2023-07-31T01:51:50;32.67;;;8.20;;
67776;SDS011;54576;52.020;5.536;2023-07-31T01:54:16;44.58;;;9.05;;
67776;SDS011;54576;52.020;5.536;2023-07-31T01:56:42;28.88;;;8.38;;
67776;SDS011;54576;52.020;5.536;2023-07-31T01:59:07;21.95;;;7.38;;
67776;SDS011;54576;52.020;5.536;2023-07-31T02:01:33;22.67;;;7.10;;
67776;SDS011;54576;52.020;5.536;2023-07-31T02:03:59;31.13;;;7.50;;
67776;SDS011;54576;52.020;5.536;2023-07-31T02:06:24;26.75;;;7.03;;
67776;SDS011;54576;52.020;5.536;2023-07-31T02:08:50;20.35;;;5.43;;
67776;SDS011;54576;52.020;5.536;2023-07-31T02:11:16;18.40;;;5.20;;
67776;SDS011;54576;52.020;5.536;2023-07-31T02:13:41;20.38;;;4.70;;
67776;SDS011;54576;52.020;5.536;2023-07-31T02:16:07;22.25;;;4.93;;
67776;SDS011;54576;52.020;5.536;2023-07-31T02:18:32;20.13;;;4.28;;
67776;SDS011;54576;52.020;5.536;2023-07-31T02:20:58;15.35;;;4.53;;
67776;SDS011;54576;52.020;5.536;2023-07-31T02:23:23;16.20;;;4.22;;
67776;SDS011;54576;52.020;5.536;2023-07-31T02:25:49;19.90;;;4.47;;
67776;SDS011;54576;52.020;5.536;2023-07-31T02:28:15;18.50;;;4.22;;
67776;SDS011;54576;52.020;5.536;2023-07-31T02:30:43;16.23;;;4.95;;
67776;SDS011;54576;52.020;5.536;2023-07-31T02:33:10;23.20;;;5.65;;
67776;SDS011;54576;52.020;5.536;2023-07-31T02:35:36;18.17;;;5.65;;
67776;SDS011;54576;52.020;5.536;2023-07-31T02:38:01;19.90;;;5.72;;
67776;SDS011;54576;52.020;5.536;2023-07-31T02:40:27;21.88;;;5.75;;
67776;SDS011;54576;52.020;5.536;2023-07-31T02:42:52;22.67;;;5.55;;
67776;SDS011;54576;52.020;5.536;2023-07-31T02:45:18;23.65;;;6.60;;
67776;SDS011;54576;52.020;5.536;2023-07-31T02:47:44;26.48;;;6.72;;
67776;SDS011;54576;52.020;5.536;2023-07-31T02:50:09;32.13;;;7.03;;
67776;SDS011;54576;52.020;5.536;2023-07-31T02:52:35;28.40;;;7.03;;
67776;SDS011;54576;52.020;5.536;2023-07-31T02:55:01;25.20;;;6.70;;
67776;SDS011;54576;52.020;5.536;2023-07-31T02:57:26;29.42;;;7.30;;
67776;SDS011;54576;52.020;5.536;2023-07-31T02:59:52;30.08;;;6.57;;
67776;SDS011;54576;52.020;5.536;2023-07-31T03:02:17;31.67;;;7.50;;
67776;SDS011;54576;52.020;5.536;2023-07-31T03:04:43;36.83;;;7.28;;
67776;SDS011;54576;52.020;5.536;2023-07-31T03:07:09;34.33;;;7.55;;
67776;SDS011;54576;52.020;5.536;2023-07-31T03:09:34;28.10;;;7.45;;
67776;SDS011;54576;52.020;5.536;2023-07-31T03:12:00;32.40;;;8.07;;
67776;SDS011;54576;52.020;5.536;2023-07-31T03:14:25;27.52;;;7.55;;
67776;SDS011;54576;52.020;5.536;2023-07-31T03:16:51;33.63;;;8.43;;
67776;SDS011;54576;52.020;5.536;2023-07-31T03:19:17;32.95;;;7.88;;
67776;SDS011;54576;52.020;5.536;2023-07-31T03:21:43;27.23;;;7.35;;
67776;SDS011;54576;52.020;5.536;2023-07-31T03:24:08;37.70;;;8.02;;
67776;SDS011;54576;52.020;5.536;2023-07-31T03:26:34;28.35;;;8.25;;
67776;SDS011;54576;52.020;5.536;2023-07-31T03:29:01;28.10;;;8.27;;
67776;SDS011;54576;52.020;5.536;2023-07-31T03:31:26;26.77;;;7.00;;
67776;SDS011;54576;52.020;5.536;2023-07-31T03:33:52;25.25;;;6.78;;
67776;SDS011;54576;52.020;5.536;2023-07-31T03:36:18;37.05;;;7.75;;
67776;SDS011;54576;52.020;5.536;2023-07-31T03:38:43;28.90;;;7.15;;
67776;SDS011;54576;52.020;5.536;2023-07-31T03:41:09;29.92;;;7.35;;
67776;SDS011;54576;52.020;5.536;2023-07-31T03:43:35;22.65;;;6.55;;
67776;SDS011;54576;52.020;5.536;2023-07-31T03:46:02;24.48;;;6.57;;
67776;SDS011;54576;52.020;5.536;2023-07-31T03:48:28;33.53;;;8.35;;
67776;SDS011;54576;52.020;5.536;2023-07-31T03:50:54;33.28;;;7.20;;
67776;SDS011;54576;52.020;5.536;2023-07-31T03:53:20;28.65;;;7.60;;
67776;SDS011;54576;52.020;5.536;2023-07-31T03:55:46;32.05;;;7.18;;
67776;SDS011;54576;52.020;5.536;2023-07-31T03:58:11;28.60;;;7.85;;
67776;SDS011;54576;52.020;5.536;2023-07-31T04:00:37;27.67;;;6.68;;
67776;SDS011;54576;52.020;5.536;2023-07-31T04:03:03;32.17;;;8.23;;
67776;SDS011;54576;52.020;5.536;2023-07-31T04:05:32;29.08;;;7.93;;
67776;SDS011;54576;52.020;5.536;2023-07-31T04:07:58;22.27;;;6.70;;
67776;SDS011;54576;52.020;5.536;2023-07-31T04:10:23;30.60;;;7.35;;
67776;SDS011;54576;52.020;5.536;2023-07-31T04:12:49;23.85;;;6.65;;
67776;SDS011;54576;52.020;5.536;2023-07-31T04:15:15;31.83;;;7.28;;
67776;SDS011;54576;52.020;5.536;2023-07-31T04:17:40;31.88;;;7.28;;
67776;SDS011;54576;52.020;5.536;2023-07-31T04:20:06;23.50;;;6.47;;
67776;SDS011;54576;52.020;5.536;2023-07-31T04:22:32;30.63;;;7.22;;
67776;SDS011;54576;52.020;5.536;2023-07-31T04:24:57;27.83;;;6.78;;
67776;SDS011;54576;52.020;5.536;2023-07-31T04:27:23;27.35;;;6.50;;
67776;SDS011;54576;52.020;5.536;2023-07-31T04:29:50;26.77;;;7.20;;
67776;SDS011;54576;52.020;5.536;2023-07-31T04:32:16;23.63;;;7.28;;
67776;SDS011;54576;52.020;5.536;2023-07-31T04:34:42;26.05;;;6.72;;
67776;SDS011;54576;52.020;5.536;2023-07-31T04:37:08;24.50;;;6.70;;
67776;SDS011;54576;52.020;5.536;2023-07-31T04:39:33;26.35;;;7.45;;
67776;SDS011;54576;52.020;5.536;2023-07-31T04:41:59;22.67;;;7.47;;
67776;SDS011;54576;52.020;5.536;2023-07-31T04:44:25;30.40;;;7.95;;
67776;SDS011;54576;52.020;5.536;2023-07-31T04:46:50;25.25;;;6.05;;
67776;SDS011;54576;52.020;5.536;2023-07-31T04:49:16;25.77;;;6.57;;
67776;SDS011;54576;52.020;5.536;2023-07-31T04:51:41;32.70;;;6.38;;
67776;SDS011;54576;52.020;5.536;2023-07-31T04:54:07;22.33;;;6.43;;
67776;SDS011;54576;52.020;5.536;2023-07-31T04:56:33;21.20;;;6.50;;
67776;SDS011;54576;52.020;5.536;2023-07-31T04:58:58;27.13;;;6.43;;
67776;SDS011;54576;52.020;5.536;2023-07-31T05:01:24;24.98;;;6.55;;
67776;SDS011;54576;52.020;5.536;2023-07-31T05:03:50;25.33;;;7.43;;
67776;SDS011;54576;52.020;5.536;2023-07-31T05:06:15;25.80;;;6.88;;
67776;SDS011;54576;52.020;5.536;2023-07-31T05:08:41;26.58;;;7.03;;
67776;SDS011;54576;52.020;5.536;2023-07-31T05:11:07;33.97;;;6.75;;
67776;SDS011;54576;52.020;5.536;2023-07-31T05:13:32;24.17;;;6.45;;
67776;SDS011;54576;52.020;5.536;2023-07-31T05:15:58;22.92;;;5.65;;
67776;SDS011;54576;52.020;5.536;2023-07-31T05:18:23;19.75;;;4.80;;
67776;SDS011;54576;52.020;5.536;2023-07-31T05:20:49;21.50;;;5.25;;
67776;SDS011;54576;52.020;5.536;2023-07-31T05:23:15;19.42;;;5.03;;
67776;SDS011;54576;52.020;5.536;2023-07-31T05:25:40;20.70;;;5.22;;
67776;SDS011;54576;52.020;5.536;2023-07-31T05:28:06;20.13;;;6.18;;
67776;SDS011;54576;52.020;5.536;2023-07-31T05:30:31;26.73;;;5.85;;
67776;SDS011;54576;52.020;5.536;2023-07-31T05:32:57;23.73;;;5.80;;
67776;SDS011;54576;52.020;5.536;2023-07-31T05:35:22;13.68;;;5.07;;
67776;SDS011;54576;52.020;5.536;2023-07-31T05:37:48;20.40;;;5.32;;
67776;SDS011;54576;52.020;5.536;2023-07-31T05:40:14;17.35;;;5.85;;
67776;SDS011;54576;52.020;5.536;2023-07-31T05:42:39;16.38;;;5.60;;
67776;SDS011;54576;52.020;5.536;2023-07-31T05:45:06;18.83;;;5.15;;
67776;SDS011;54576;52.020;5.536;2023-07-31T05:47:32;17.08;;;5.50;;
67776;SDS011;54576;52.020;5.536;2023-07-31T05:49:58;11.40;;;4.78;;
67776;SDS011;54576;52.020;5.536;2023-07-31T05:52:23;11.55;;;4.45;;
67776;SDS011;54576;52.020;5.536;2023-07-31T05:54:49;13.98;;;5.22;;
67776;SDS011;54576;52.020;5.536;2023-07-31T05:57:15;13.57;;;4.78;;
67776;SDS011;54576;52.020;5.536;2023-07-31T05:59:41;17.58;;;5.13;;
67776;SDS011;54576;52.020;5.536;2023-07-31T06:02:07;21.70;;;5.63;;
67776;SDS011;54576;52.020;5.536;2023-07-31T06:04:32;19.27;;;5.82;;
67776;SDS011;54576;52.020;5.536;2023-07-31T06:06:58;16.25;;;5.57;;
67776;SDS011;54576;52.020;5.536;2023-07-31T06:09:24;17.30;;;5.43;;
67776;SDS011;54576;52.020;5.536;2023-07-31T06:11:50;19.13;;;6.22;;
67776;SDS011;54576;52.020;5.536;2023-07-31T06:14:16;16.88;;;5.30;;
67776;SDS011;54576;52.020;5.536;2023-07-31T06:16:42;16.45;;;5.30;;
67776;SDS011;54576;52.020;5.536;2023-07-31T06:19:09;12.35;;;5.45;;
67776;SDS011;54576;52.020;5.536;2023-07-31T06:21:34;10.55;;;4.50;;
67776;SDS011;54576;52.020;5.536;2023-07-31T06:24:02;13.63;;;4.85;;
67776;SDS011;54576;52.020;5.536;2023-07-31T06:26:28;8.52;;;4.03;;
67776;SDS011;54576;52.020;5.536;2023-07-31T06:28:54;13.40;;;4.10;;
67776;SDS011;54576;52.020;5.536;2023-07-31T06:31:19;12.90;;;4.35;;
67776;SDS011;54576;52.020;5.536;2023-07-31T06:33:51;12.82;;;4.47;;
67776;SDS011;54576;52.020;5.536;2023-07-31T06:36:17;12.85;;;4.28;;
67776;SDS011;54576;52.020;5.536;2023-07-31T06:38:42;9.30;;;3.83;;
67776;SDS011;54576;52.020;5.536;2023-07-31T06:41:08;5.88;;;3.00;;
67776;SDS011;54576;52.020;5.536;2023-07-31T06:43:35;8.05;;;3.38;;
67776;SDS011;54576;52.020;5.536;2023-07-31T06:46:04;6.75;;;3.17;;
67776;SDS011;54576;52.020;5.536;2023-07-31T06:48:31;10.10;;;3.17;;
67776;SDS011;54576;52.020;5.536;2023-07-31T06:51:07;7.32;;;3.10;;
67776;SDS011;54576;52.020;5.536;2023-07-31T06:53:32;15.05;;;3.55;;
67776;SDS011;54576;52.020;5.536;2023-07-31T06:55:58;6.45;;;3.00;;
67776;SDS011;54576;52.020;5.536;2023-07-31T06:58:23;10.07;;;3.10;;
67776;SDS011;54576;52.020;5.536;2023-07-31T07:00:49;5.05;;;3.00;;
67776;SDS011;54576;52.020;5.536;2023-07-31T07:03:17;7.65;;;2.90;;
67776;SDS011;54576;52.020;5.536;2023-07-31T07:05:43;6.50;;;2.70;;
67776;SDS011;54576;52.020;5.536;2023-07-31T07:08:09;8.57;;;2.67;;
67776;SDS011;54576;52.020;5.536;2023-07-31T07:10:35;4.13;;;2.20;;
67776;SDS011;54576;52.020;5.536;2023-07-31T07:13:00;5.68;;;2.80;;
67776;SDS011;54576;52.020;5.536;2023-07-31T07:15:26;2.88;;;2.10;;
67776;SDS011;54576;52.020;5.536;2023-07-31T07:17:51;7.15;;;2.50;;
67776;SDS011;54576;52.020;5.536;2023-07-31T07:20:17;7.28;;;2.30;;
67776;SDS011;54576;52.020;5.536;2023-07-31T07:22:44;3.45;;;2.58;;
67776;SDS011;54576;52.020;5.536;2023-07-31T07:25:10;4.68;;;2.47;;
67776;SDS011;54576;52.020;5.536;2023-07-31T07:27:35;4.75;;;2.17;;
67776;SDS011;54576;52.020;5.536;2023-07-31T07:30:01;5.90;;;2.47;;
67776;SDS011;54576;52.020;5.536;2023-07-31T07:32:27;4.32;;;2.50;;
67776;SDS011;54576;52.020;5.536;2023-07-31T07:34:52;4.15;;;2.15;;
67776;SDS011;54576;52.020;5.536;2023-07-31T07:37:18;5.43;;;2.60;;
67776;SDS011;54576;52.020;5.536;2023-07-31T07:39:44;5.40;;;2.65;;
67776;SDS011;54576;52.020;5.536;2023-07-31T07:42:09;4.10;;;2.53;;
67776;SDS011;54576;52.020;5.536;2023-07-31T07:44:35;6.10;;;3.25;;
67776;SDS011;54576;52.020;5.536;2023-07-31T07:47:03;4.60;;;2.70;;
67776;SDS011;54576;52.020;5.536;2023-07-31T07:49:32;4.05;;;2.55;;
67776;SDS011;54576;52.020;5.536;2023-07-31T07:51:59;6.18;;;2.53;;
67776;SDS011;54576;52.020;5.536;2023-07-31T07:54:25;3.30;;;2.95;;
67776;SDS011;54576;52.020;5.536;2023-07-31T07:56:50;4.88;;;2.53;;
67776;SDS011;54576;52.020;5.536;2023-07-31T07:59:16;7.53;;;2.50;;
67776;SDS011;54576;52.020;5.536;2023-07-31T08:01:41;3.67;;;2.58;;
67776;SDS011;54576;52.020;5.536;2023-07-31T08:04:07;5.93;;;2.30;;
67776;SDS011;54576;52.020;5.536;2023-07-31T08:06:32;4.80;;;2.58;;
67776;SDS011;54576;52.020;5.536;2023-07-31T08:08:58;5.47;;;2.50;;
67776;SDS011;54576;52.020;5.536;2023-07-31T08:11:24;7.53;;;3.50;;
67776;SDS011;54576;52.020;5.536;2023-07-31T08:13:50;4.35;;;2.55;;
67776;SDS011;54576;52.020;5.536;2023-07-31T08:16:16;2.58;;;1.90;;
67776;SDS011;54576;52.020;5.536;2023-07-31T08:18:41;5.30;;;2.38;;
67776;SDS011;54576;52.020;5.536;2023-07-31T08:21:10;2.38;;;2.17;;
67776;SDS011;54576;52.020;5.536;2023-07-31T08:23:35;3.25;;;2.20;;
67776;SDS011;54576;52.020;5.536;2023-07-31T08:26:01;5.18;;;2.40;;
67776;SDS011;54576;52.020;5.536;2023-07-31T08:28:27;3.72;;;2.20;;
67776;SDS011;54576;52.020;5.536;2023-07-31T08:30:52;4.72;;;2.50;;
67776;SDS011;54576;52.020;5.536;2023-07-31T08:33:18;3.03;;;2.38;;
67776;SDS011;54576;52.020;5.536;2023-07-31T08:35:43;2.25;;;2.08;;
67776;SDS011;54576;52.020;5.536;2023-07-31T08:38:09;3.80;;;2.42;;
67776;SDS011;54576;52.020;5.536;2023-07-31T08:40:37;5.65;;;2.45;;
67776;SDS011;54576;52.020;5.536;2023-07-31T08:43:03;5.80;;;2.20;;
67776;SDS011;54576;52.020;5.536;2023-07-31T08:45:32;3.85;;;2.08;;
67776;SDS011;54576;52.020;5.536;2023-07-31T08:47:58;7.15;;;2.20;;
67776;SDS011;54576;52.020;5.536;2023-07-31T08:50:24;5.97;;;2.08;;
67776;SDS011;54576;52.020;5.536;2023-07-31T08:52:50;2.15;;;1.85;;
67776;SDS011;54576;52.020;5.536;2023-07-31T08:55:17;1.90;;;1.80;;
67776;SDS011;54576;52.020;5.536;2023-07-31T08:57:48;4.28;;;1.70;;
67776;SDS011;54576;52.020;5.536;2023-07-31T09:00:15;1.92;;;1.83;;
67776;SDS011;54576;52.020;5.536;2023-07-31T09:02:45;1.80;;;1.70;;
67776;SDS011;54576;52.020;5.536;2023-07-31T09:05:37;2.63;;;1.52;;
67776;SDS011;54576;52.020;5.536;2023-07-31T09:08:06;2.55;;;2.17;;
67776;SDS011;54576;52.020;5.536;2023-07-31T09:10:34;2.15;;;2.00;;
67776;SDS011;54576;52.020;5.536;2023-07-31T09:12:59;2.65;;;2.20;;
67776;SDS011;54576;52.020;5.536;2023-07-31T09:15:25;2.40;;;2.10;;
67776;SDS011;54576;52.020;5.536;2023-07-31T09:18:00;3.17;;;2.10;;
67776;SDS011;54576;52.020;5.536;2023-07-31T09:20:26;1.90;;;1.77;;
67776;SDS011;54576;52.020;5.536;2023-07-31T09:22:52;3.58;;;2.47;;
67776;SDS011;54576;52.020;5.536;2023-07-31T09:25:20;3.15;;;2.35;;
67776;SDS011;54576;52.020;5.536;2023-07-31T09:27:54;5.30;;;2.75;;
67776;SDS011;54576;52.020;5.536;2023-07-31T09:30:24;2.83;;;2.55;;
67776;SDS011;54576;52.020;5.536;2023-07-31T09:32:50;4.80;;;3.15;;
67776;SDS011;54576;52.020;5.536;2023-07-31T09:35:20;7.40;;;3.53;;
67776;SDS011;54576;52.020;5.536;2023-07-31T09:37:55;14.63;;;4.18;;
67776;SDS011;54576;52.020;5.536;2023-07-31T09:43:08;5.78;;;3.53;;
67776;SDS011;54576;52.020;5.536;2023-07-31T09:45:36;7.20;;;3.95;;
67776;SDS011;54576;52.020;5.536;2023-07-31T09:48:03;11.40;;;3.90;;
67776;SDS011;54576;52.020;5.536;2023-07-31T09:50:38;10.52;;;4.03;;
67776;SDS011;54576;52.020;5.536;2023-07-31T09:53:06;6.60;;;4.20;;
67776;SDS011;54576;52.020;5.536;2023-07-31T09:55:32;3.15;;;2.85;;
67776;SDS011;54576;52.020;5.536;2023-07-31T09:57:59;5.35;;;3.30;;
67776;SDS011;54576;52.020;5.536;2023-07-31T10:02:54;6.53;;;4.05;;
67776;SDS011;54576;52.020;5.536;2023-07-31T10:05:24;10.85;;;4.00;;
67776;SDS011;54576;52.020;5.536;2023-07-31T10:07:56;8.05;;;4.40;;
67776;SDS011;54576;52.020;5.536;2023-07-31T10:10:22;9.57;;;4.75;;
67776;SDS011;54576;52.020;5.536;2023-07-31T10:12:49;10.02;;;4.30;;
67776;SDS011;54576;52.020;5.536;2023-07-31T10:15:18;11.13;;;4.63;;
67776;SDS011;54576;52.020;5.536;2023-07-31T10:17:47;8.63;;;4.90;;
67776;SDS011;54576;52.020;5.536;2023-07-31T10:20:14;7.25;;;4.57;;
67776;SDS011;54576;52.020;5.536;2023-07-31T10:22:44;8.73;;;4.82;;
67776;SDS011;54576;52.020;5.536;2023-07-31T10:25:12;6.05;;;3.85;;
67776;SDS011;54576;52.020;5.536;2023-07-31T10:27:43;7.32;;;4.57;;
67776;SDS011;54576;52.020;5.536;2023-07-31T10:30:11;11.20;;;4.35;;
67776;SDS011;54576;52.020;5.536;2023-07-31T10:32:40;7.57;;;3.90;;
67776;SDS011;54576;52.020;5.536;2023-07-31T10:35:07;6.13;;;4.00;;
67776;SDS011;54576;52.020;5.536;2023-07-31T10:37:38;6.22;;;4.22;;
67776;SDS011;54576;52.020;5.536;2023-07-31T10:42:35;9.63;;;4.30;;
67776;SDS011;54576;52.020;5.536;2023-07-31T10:45:50;7.05;;;3.58;;
67776;SDS011;54576;52.020;5.536;2023-07-31T10:48:15;5.95;;;3.80;;
67776;SDS011;54576;52.020;5.536;2023-07-31T10:50:48;7.30;;;3.53;;
67776;SDS011;54576;52.020;5.536;2023-07-31T10:53:33;6.60;;;3.50;;
67776;SDS011;54576;52.020;5.536;2023-07-31T10:55:59;6.57;;;3.30;;
67776;SDS011;54576;52.020;5.536;2023-07-31T10:58:26;4.90;;;3.42;;
67776;SDS011;54576;52.020;5.536;2023-07-31T11:00:55;8.75;;;3.08;;
67776;SDS011;54576;52.020;5.536;2023-07-31T11:03:24;6.82;;;3.58;;
67776;SDS011;54576;52.020;5.536;2023-07-31T11:08:29;8.23;;;2.83;;
67776;SDS011;54576;52.020;5.536;2023-07-31T11:13:27;5.97;;;2.65;;
67776;SDS011;54576;52.020;5.536;2023-07-31T11:15:57;2.67;;;2.47;;
67776;SDS011;54576;52.020;5.536;2023-07-31T11:18:23;3.28;;;2.47;;
67776;SDS011;54576;52.020;5.536;2023-07-31T11:20:49;4.90;;;2.72;;
67776;SDS011;54576;52.020;5.536;2023-07-31T11:23:15;2.72;;;2.53;;
67776;SDS011;54576;52.020;5.536;2023-07-31T11:25:42;6.90;;;3.33;;
67776;SDS011;54576;52.020;5.536;2023-07-31T11:28:15;5.72;;;3.13;;
67776;SDS011;54576;52.020;5.536;2023-07-31T11:30:44;5.32;;;3.40;;
67776;SDS011;54576;52.020;5.536;2023-07-31T11:33:13;3.33;;;3.00;;
67776;SDS011;54576;52.020;5.536;2023-07-31T11:35:44;4.25;;;2.95;;
67776;SDS011;54576;52.020;5.536;2023-07-31T11:40:49;6.68;;;2.90;;
67776;SDS011;54576;52.020;5.536;2023-07-31T11:43:15;5.80;;;3.03;;
67776;SDS011;54576;52.020;5.536;2023-07-31T11:45:47;7.80;;;3.20;;
67776;SDS011;54576;52.020;5.536;2023-07-31T11:48:24;3.95;;;3.22;;
67776;SDS011;54576;52.020;5.536;2023-07-31T11:50:52;4.43;;;3.20;;
67776;SDS011;54576;52.020;5.536;2023-07-31T11:53:21;5.97;;;3.70;;
67776;SDS011;54576;52.020;5.536;2023-07-31T11:55:53;5.75;;;3.20;;
67776;SDS011;54576;52.020;5.536;2023-07-31T11:58:20;3.42;;;2.70;;
67776;SDS011;54576;52.020;5.536;2023-07-31T12:00:46;5.85;;;3.47;;
67776;SDS011;54576;52.020;5.536;2023-07-31T12:03:13;6.50;;;2.55;;
67776;SDS011;54576;52.020;5.536;2023-07-31T12:05:39;2.67;;;2.13;;
67776;SDS011;54576;52.020;5.536;2023-07-31T12:08:11;3.40;;;2.17;;
67776;SDS011;54576;52.020;5.536;2023-07-31T12:10:36;3.78;;;2.45;;
67776;SDS011;54576;52.020;5.536;2023-07-31T12:13:04;7.13;;;2.50;;
67776;SDS011;54576;52.020;5.536;2023-07-31T12:17:59;2.45;;;1.58;;
67776;SDS011;54576;52.020;5.536;2023-07-31T12:20:25;2.42;;;1.90;;
67776;SDS011;54576;52.020;5.536;2023-07-31T12:22:51;2.45;;;2.22;;
67776;SDS011;54576;52.020;5.536;2023-07-31T12:25:16;3.22;;;2.15;;
67776;SDS011;54576;52.020;5.536;2023-07-31T12:27:45;2.25;;;1.90;;
67776;SDS011;54576;52.020;5.536;2023-07-31T12:33:07;2.38;;;1.98;;
67776;SDS011;54576;52.020;5.536;2023-07-31T12:35:44;2.20;;;2.00;;
67776;SDS011;54576;52.020;5.536;2023-07-31T12:38:11;3.05;;;2.10;;
67776;SDS011;54576;52.020;5.536;2023-07-31T12:40:38;3.15;;;2.20;;
67776;SDS011;54576;52.020;5.536;2023-07-31T12:43:04;2.47;;;2.28;;
67776;SDS011;54576;52.020;5.536;2023-07-31T12:45:31;3.08;;;2.55;;
67776;SDS011;54576;52.020;5.536;2023-07-31T12:47:57;2.78;;;2.58;;
67776;SDS011;54576;52.020;5.536;2023-07-31T12:50:24;3.15;;;2.72;;
67776;SDS011;54576;52.020;5.536;2023-07-31T12:52:53;3.30;;;2.88;;
67776;SDS011;54576;52.020;5.536;2023-07-31T12:55:19;4.38;;;3.33;;
67776;SDS011;54576;52.020;5.536;2023-07-31T12:57:45;6.68;;;3.45;;
67776;SDS011;54576;52.020;5.536;2023-07-31T13:00:11;5.00;;;3.38;;
67776;SDS011;54576;52.020;5.536;2023-07-31T13:02:37;5.50;;;3.55;;
67776;SDS011;54576;52.020;5.536;2023-07-31T13:05:03;10.50;;;4.03;;
67776;SDS011;54576;52.020;5.536;2023-07-31T13:07:29;4.00;;;3.60;;
67776;SDS011;54576;52.020;5.536;2023-07-31T13:09:55;6.88;;;4.28;;
67776;SDS011;54576;52.020;5.536;2023-07-31T13:12:20;6.03;;;3.75;;
67776;SDS011;54576;52.020;5.536;2023-07-31T13:14:46;5.95;;;3.47;;
67776;SDS011;54576;52.020;5.536;2023-07-31T13:17:11;4.65;;;3.95;;
67776;SDS011;54576;52.020;5.536;2023-07-31T13:19:37;4.95;;;3.78;;
67776;SDS011;54576;52.020;5.536;2023-07-31T13:22:02;9.55;;;3.70;;
67776;SDS011;54576;52.020;5.536;2023-07-31T13:24:29;7.80;;;4.43;;
67776;SDS011;54576;52.020;5.536;2023-07-31T13:26:55;6.05;;;4.20;;
67776;SDS011;54576;52.020;5.536;2023-07-31T13:29:22;5.38;;;4.43;;
67776;SDS011;54576;52.020;5.536;2023-07-31T13:31:47;5.95;;;4.45;;
67776;SDS011;54576;52.020;5.536;2023-07-31T13:34:13;5.47;;;3.83;;
67776;SDS011;54576;52.020;5.536;2023-07-31T13:36:38;5.70;;;4.07;;
67776;SDS011;54576;52.020;5.536;2023-07-31T13:39:04;7.75;;;4.50;;
67776;SDS011;54576;52.020;5.536;2023-07-31T13:41:30;7.20;;;4.40;;
67776;SDS011;54576;52.020;5.536;2023-07-31T13:43:55;6.25;;;4.70;;
67776;SDS011;54576;52.020;5.536;2023-07-31T13:46:21;5.82;;;4.28;;
67776;SDS011;54576;52.020;5.536;2023-07-31T13:48:46;8.38;;;4.63;;
67776;SDS011;54576;52.020;5.536;2023-07-31T13:51:12;6.43;;;4.68;;
67776;SDS011;54576;52.020;5.536;2023-07-31T13:53:41;11.38;;;4.97;;
67776;SDS011;54576;52.020;5.536;2023-07-31T13:56:06;8.25;;;5.00;;
67776;SDS011;54576;52.020;5.536;2023-07-31T13:58:33;6.60;;;5.28;;
67776;SDS011;54576;52.020;5.536;2023-07-31T14:00:58;8.10;;;5.53;;
67776;SDS011;54576;52.020;5.536;2023-07-31T14:03:24;9.10;;;5.70;;
67776;SDS011;54576;52.020;5.536;2023-07-31T14:05:51;8.85;;;5.65;;
67776;SDS011;54576;52.020;5.536;2023-07-31T14:08:17;11.68;;;5.88;;
67776;SDS011;54576;52.020;5.536;2023-07-31T14:10:43;9.05;;;6.07;;
67776;SDS011;54576;52.020;5.536;2023-07-31T14:13:08;12.82;;;6.32;;
67776;SDS011;54576;52.020;5.536;2023-07-31T14:15:34;12.80;;;6.35;;
67776;SDS011;54576;52.020;5.536;2023-07-31T14:18:01;9.43;;;5.63;;
67776;SDS011;54576;52.020;5.536;2023-07-31T14:20:27;6.90;;;5.28;;
67776;SDS011;54576;52.020;5.536;2023-07-31T14:22:53;18.45;;;7.00;;
67776;SDS011;54576;52.020;5.536;2023-07-31T14:25:18;17.48;;;5.90;;
67776;SDS011;54576;52.020;5.536;2023-07-31T14:27:44;9.55;;;5.78;;
67776;SDS011;54576;52.020;5.536;2023-07-31T14:30:10;7.35;;;5.28;;
67776;SDS011;54576;52.020;5.536;2023-07-31T14:32:35;8.38;;;5.30;;
67776;SDS011;54576;52.020;5.536;2023-07-31T14:35:02;8.95;;;4.88;;
67776;SDS011;54576;52.020;5.536;2023-07-31T14:37:36;6.63;;;4.72;;
67776;SDS011;54576;52.020;5.536;2023-07-31T14:40:02;7.25;;;4.80;;
67776;SDS011;54576;52.020;5.536;2023-07-31T14:42:28;6.13;;;4.72;;
67776;SDS011;54576;52.020;5.536;2023-07-31T14:44:54;8.88;;;4.38;;
67776;SDS011;54576;52.020;5.536;2023-07-31T14:47:20;8.18;;;5.30;;
67776;SDS011;54576;52.020;5.536;2023-07-31T14:49:49;10.75;;;4.47;;
67776;SDS011;54576;52.020;5.536;2023-07-31T14:52:14;10.23;;;4.38;;
67776;SDS011;54576;52.020;5.536;2023-07-31T14:54:40;7.03;;;4.03;;
67776;SDS011;54576;52.020;5.536;2023-07-31T14:57:06;5.95;;;3.40;;
67776;SDS011;54576;52.020;5.536;2023-07-31T14:59:32;7.93;;;4.07;;
67776;SDS011;54576;52.020;5.536;2023-07-31T15:01:57;6.35;;;4.47;;
67776;SDS011;54576;52.020;5.536;2023-07-31T15:04:23;8.25;;;4.10;;
67776;SDS011;54576;52.020;5.536;2023-07-31T15:06:49;8.88;;;4.80;;